createdAt,value
2022-10-19T00:00:33.664Z,4.73
2022-10-19T00:03:00.418Z,4.71
2022-10-19T00:05:28.285Z,4.74
2022-10-19T00:07:55.799Z,4.77
2022-10-19T00:10:22.744Z,4.74
2022-10-19T00:12:49.550Z,4.75
2022-10-19T00:15:16.535Z,4.74
2022-10-19T00:17:43.505Z,4.68
2022-10-19T00:20:11.486Z,4.68
2022-10-19T00:22:38.653Z,4.67
2022-10-19T00:25:05.965Z,4.65
2022-10-19T00:27:32.889Z,4.63
2022-10-19T00:29:59.836Z,4.67
2022-10-19T00:32:26.632Z,4.65
2022-10-19T00:34:53.481Z,4.60
2022-10-19T00:37:20.288Z,4.57
2022-10-19T00:39:47.173Z,4.56
2022-10-19T00:42:13.966Z,4.51
2022-10-19T00:44:40.757Z,4.49
2022-10-19T00:47:08.618Z,4.46
2022-10-19T00:49:44.260Z,4.40
2022-10-19T00:52:15.213Z,4.41
2022-10-19T00:54:44.656Z,4.36
2022-10-19T00:57:12.347Z,4.34
2022-10-19T00:59:41.329Z,4.29
2022-10-19T01:02:08.148Z,4.27
2022-10-19T01:04:38.950Z,4.18
2022-10-19T01:07:08.267Z,4.19
2022-10-19T01:09:35.189Z,4.15
2022-10-19T01:12:38.898Z,4.14
2022-10-19T01:15:27.354Z,4.09
2022-10-19T01:18:19.138Z,4.01
2022-10-19T01:21:16.824Z,4.05
2022-10-19T01:24:20.232Z,4.04
2022-10-19T01:27:23.664Z,4.00
2022-10-19T01:29:59.241Z,3.96
2022-10-19T01:32:35.904Z,3.90
2022-10-19T01:35:26.161Z,3.86
2022-10-19T01:38:15.867Z,3.89
2022-10-19T01:40:53.545Z,3.86
2022-10-19T01:43:29.176Z,3.88
2022-10-19T01:46:07.261Z,3.86
2022-10-19T01:48:38.011Z,3.78
2022-10-19T01:51:20.222Z,3.74
2022-10-19T01:53:53.167Z,3.73
2022-10-19T01:56:24.878Z,3.70
2022-10-19T01:58:54.254Z,3.65
2022-10-19T02:01:23.200Z,3.68
2022-10-19T02:03:53.255Z,3.67
2022-10-19T02:06:21.090Z,3.69
2022-10-19T02:08:50.915Z,3.74
2022-10-19T02:11:19.354Z,3.76
2022-10-19T02:13:51.723Z,3.75
2022-10-19T02:16:28.295Z,3.77
2022-10-19T02:18:56.565Z,3.76
2022-10-19T02:21:24.015Z,3.79
2022-10-19T02:23:53.376Z,3.80
2022-10-19T02:26:21.462Z,3.77
2022-10-19T02:28:49.143Z,3.69
2022-10-19T02:31:16.623Z,3.64
2022-10-19T02:33:43.703Z,3.57
2022-10-19T02:36:10.625Z,3.54
2022-10-19T02:38:37.487Z,3.59
2022-10-19T02:41:22.862Z,3.54
2022-10-19T02:44:00.552Z,3.55
2022-10-19T02:46:42.861Z,3.56
2022-10-19T02:49:11.937Z,3.51
2022-10-19T02:51:54.800Z,3.46
2022-10-19T02:54:22.118Z,3.48
2022-10-19T02:56:48.934Z,3.48
2022-10-19T02:59:15.850Z,3.44
2022-10-19T03:01:42.705Z,3.39
2022-10-19T03:04:09.746Z,3.37
2022-10-19T03:06:36.640Z,3.35
2022-10-19T03:09:04.052Z,3.35
2022-10-19T03:11:31.098Z,3.34
2022-10-19T03:13:57.929Z,3.36
2022-10-19T03:16:24.722Z,3.37
2022-10-19T03:18:51.962Z,3.38
2022-10-19T03:21:19.915Z,3.37
2022-10-19T03:23:46.889Z,3.36
2022-10-19T03:26:16.798Z,3.30
2022-10-19T03:28:43.674Z,3.26
2022-10-19T03:31:10.519Z,3.22
2022-10-19T03:33:37.338Z,3.24
2022-10-19T03:36:35.153Z,3.25
2022-10-19T03:39:08.744Z,3.22
2022-10-19T03:41:37.287Z,3.18
2022-10-19T03:44:04.812Z,3.10
2022-10-19T03:46:31.948Z,3.02
2022-10-19T03:48:58.922Z,2.97
2022-10-19T03:51:30.267Z,2.93
2022-10-19T03:54:07.121Z,2.92
2022-10-19T03:56:35.701Z,2.88
2022-10-19T03:59:04.977Z,2.89
2022-10-19T04:01:37.976Z,2.85
2022-10-19T04:04:07.619Z,2.88
2022-10-19T04:06:37.143Z,2.87
2022-10-19T04:09:04.917Z,2.87
2022-10-19T04:11:33.624Z,2.84
2022-10-19T04:14:01.572Z,2.78
2022-10-19T04:16:30.565Z,2.71
2022-10-19T04:18:58.213Z,2.71
2022-10-19T04:21:30.975Z,2.67
2022-10-19T04:24:02.970Z,2.63
2022-10-19T04:26:30.600Z,2.57
2022-10-19T04:29:01.735Z,2.56
2022-10-19T04:31:29.526Z,2.52
2022-10-19T04:33:57.435Z,2.54
2022-10-19T04:36:24.329Z,2.50
2022-10-19T04:38:51.683Z,2.48
2022-10-19T04:41:21.095Z,2.48
2022-10-19T04:43:48.218Z,2.54
2022-10-19T04:46:17.680Z,2.54
2022-10-19T04:48:45.408Z,2.53
2022-10-19T04:51:12.464Z,2.51
2022-10-19T04:53:40.927Z,2.52
2022-10-19T04:56:11.997Z,2.52
2022-10-19T04:58:38.843Z,2.49
2022-10-19T05:01:20.136Z,2.39
2022-10-19T05:03:48.434Z,2.49
2022-10-19T05:06:15.901Z,2.51
2022-10-19T05:08:43.016Z,2.47
2022-10-19T05:11:13.200Z,2.51
2022-10-19T05:13:40.609Z,2.41
2022-10-19T05:16:10.978Z,2.36
2022-10-19T05:18:38.228Z,2.34
2022-10-19T05:21:13.633Z,2.40
2022-10-19T05:23:41.976Z,2.43
2022-10-19T05:26:12.067Z,2.49
2022-10-19T05:28:39.272Z,2.60
2022-10-19T05:31:12.024Z,2.68
2022-10-19T05:33:39.602Z,2.77
2022-10-19T05:36:21.555Z,2.87
2022-10-19T05:38:50.407Z,2.94
2022-10-19T05:41:17.602Z,3.05
2022-10-19T05:43:45.312Z,3.12
2022-10-19T05:46:15.287Z,3.24
2022-10-19T05:48:42.242Z,3.28
2022-10-19T05:51:12.003Z,3.41
2022-10-19T05:56:29.119Z,3.54
2022-10-19T05:59:02.019Z,3.62
2022-10-19T06:01:29.564Z,3.63
2022-10-19T06:03:58.342Z,3.75
2022-10-19T06:06:27.226Z,3.78
2022-10-19T06:08:55.852Z,3.89
2022-10-19T06:11:26.824Z,4.06
2022-10-19T06:13:56.550Z,4.24
2022-10-19T06:16:24.972Z,4.45
2022-10-19T06:18:53.363Z,4.52
2022-10-19T06:21:22.687Z,4.63
2022-10-19T06:23:58.447Z,4.77
2022-10-19T06:26:26.317Z,4.95
2022-10-19T06:28:56.794Z,5.12
2022-10-19T06:31:23.804Z,5.24
2022-10-19T06:33:51.103Z,5.38
2022-10-19T06:36:22.884Z,5.54
2022-10-19T06:38:50.106Z,5.69
2022-10-19T06:41:17.726Z,5.79
2022-10-19T06:43:44.745Z,5.92
2022-10-19T06:46:20.656Z,6.04
2022-10-19T06:48:56.786Z,6.11
2022-10-19T06:51:26.167Z,6.24
2022-10-19T06:53:56.538Z,6.38
2022-10-19T06:56:24.848Z,6.49
2022-10-19T06:58:52.107Z,6.72
2022-10-19T07:01:19.150Z,6.88
2022-10-19T07:03:46.140Z,7.07
2022-10-19T07:06:13.677Z,7.19
2022-10-19T07:08:41.817Z,7.30
2022-10-19T07:11:12.702Z,7.44
2022-10-19T07:13:39.669Z,7.42
2022-10-19T07:16:16.000Z,7.51
2022-10-19T07:18:47.570Z,7.76
2022-10-19T07:21:15.977Z,7.89
2022-10-19T07:23:45.135Z,7.88
2022-10-19T07:26:24.781Z,8.06
2022-10-19T07:28:52.592Z,8.24
2022-10-19T07:31:22.430Z,8.48
2022-10-19T07:33:57.504Z,8.58
2022-10-19T07:36:25.256Z,8.62
2022-10-19T07:38:52.532Z,8.74
2022-10-19T07:41:22.027Z,8.87
2022-10-19T07:43:50.083Z,9.05
2022-10-19T07:46:19.967Z,9.18
2022-10-19T07:48:47.546Z,9.27
2022-10-19T07:51:16.200Z,9.37
2022-10-19T07:53:43.564Z,9.58
2022-10-19T07:56:11.827Z,9.82
2022-10-19T07:58:39.106Z,10.18
2022-10-19T08:01:11.463Z,10.64
2022-10-19T08:06:26.365Z,11.31
2022-10-19T08:08:54.007Z,11.53
2022-10-19T08:11:27.570Z,11.90
2022-10-19T08:13:54.849Z,12.04
2022-10-19T08:16:23.251Z,12.37
2022-10-19T08:18:51.100Z,12.53
2022-10-19T08:21:18.713Z,12.61
2022-10-19T08:23:45.599Z,12.67
2022-10-19T08:26:12.497Z,12.82
2022-10-19T08:28:39.778Z,13.05
2022-10-19T08:31:16.000Z,13.24
2022-10-19T08:33:43.212Z,13.48
2022-10-19T08:36:12.021Z,13.65
2022-10-19T08:38:39.489Z,13.91
2022-10-19T08:41:17.559Z,14.34
2022-10-19T08:43:57.936Z,14.69
2022-10-19T08:47:06.066Z,14.89
2022-10-19T08:49:34.745Z,15.04
2022-10-19T08:52:05.353Z,15.18
2022-10-19T08:54:42.735Z,15.23
2022-10-19T08:57:15.306Z,15.44
2022-10-19T09:00:01.314Z,15.50
2022-10-19T09:02:36.873Z,15.59
2022-10-19T09:05:28.820Z,15.67
2022-10-19T09:07:55.905Z,15.74
2022-10-19T09:10:26.907Z,15.81
2022-10-19T09:13:00.623Z,15.79
2022-10-19T09:15:40.231Z,15.97
2022-10-19T09:18:24.019Z,16.17
2022-10-19T09:21:13.357Z,16.46
2022-10-19T09:23:47.301Z,16.72
2022-10-19T09:26:17.724Z,16.88
2022-10-19T09:29:06.836Z,16.96
2022-10-19T09:31:40.690Z,17.11
2022-10-19T09:34:34.064Z,17.18
2022-10-19T09:37:01.029Z,17.32
2022-10-19T09:39:29.901Z,17.26
2022-10-19T09:41:58.268Z,17.22
2022-10-19T09:44:26.486Z,17.23
2022-10-19T09:47:02.942Z,17.27
2022-10-19T09:49:47.152Z,17.35
2022-10-19T09:52:39.505Z,17.47
2022-10-19T09:55:15.880Z,17.59
2022-10-19T09:57:48.092Z,17.64
2022-10-19T10:00:24.480Z,17.74
2022-10-19T10:02:53.736Z,17.89
2022-10-19T10:05:30.013Z,17.92
2022-10-19T10:07:56.972Z,18.12
2022-10-19T10:10:30.568Z,18.24
2022-10-19T10:13:01.750Z,18.38
2022-10-19T10:15:36.603Z,18.42
2022-10-19T10:18:04.019Z,18.57
2022-10-19T10:20:32.719Z,18.72
2022-10-19T10:23:00.783Z,18.78
2022-10-19T10:25:31.632Z,18.97
2022-10-19T10:28:04.560Z,19.07
2022-10-19T10:30:35.523Z,19.08
2022-10-19T10:33:15.774Z,19.08
2022-10-19T10:35:55.866Z,19.37
2022-10-19T10:38:27.882Z,19.60
2022-10-19T10:41:00.208Z,19.74
2022-10-19T10:43:33.190Z,19.64
2022-10-19T10:46:13.904Z,19.84
2022-10-19T10:48:45.188Z,20.08
2022-10-19T10:51:26.138Z,19.84
2022-10-19T10:54:17.032Z,19.73
2022-10-19T10:56:54.769Z,19.92
2022-10-19T10:59:31.654Z,20.13
2022-10-19T11:02:03.439Z,20.21
2022-10-19T11:04:37.469Z,20.22
2022-10-19T11:07:32.990Z,20.35
2022-10-19T11:10:09.931Z,20.41
2022-10-19T11:12:41.793Z,20.41
2022-10-19T11:15:26.839Z,20.53
2022-10-19T11:18:22.694Z,20.62
2022-10-19T11:21:00.335Z,20.71
2022-10-19T11:23:34.782Z,20.95
2022-10-19T11:26:31.372Z,21.03
2022-10-19T11:29:10.375Z,21.03
2022-10-19T11:31:50.558Z,21.06
2022-10-19T11:34:43.454Z,21.14
2022-10-19T11:37:45.830Z,21.13
2022-10-19T11:41:12.867Z,20.72
2022-10-19T11:43:54.380Z,20.52
2022-10-19T11:46:25.480Z,20.55
2022-10-19T11:49:04.542Z,20.76
2022-10-19T11:51:49.975Z,20.94
2022-10-19T11:54:22.616Z,20.97
2022-10-19T11:57:03.492Z,21.03
2022-10-19T12:00:15.693Z,20.97
2022-10-19T12:03:32.197Z,21.00
2022-10-19T12:06:09.442Z,21.23
2022-10-19T12:08:42.370Z,21.45
2022-10-19T12:11:28.974Z,21.51
2022-10-19T12:14:01.064Z,21.66
2022-10-19T12:16:38.362Z,21.57
2022-10-19T12:19:06.977Z,21.55
2022-10-19T12:21:41.139Z,21.68
2022-10-19T12:24:15.766Z,21.62
2022-10-19T12:26:44.998Z,21.69
2022-10-19T12:29:22.095Z,21.74
2022-10-19T12:31:50.306Z,21.97
2022-10-19T12:34:29.362Z,21.89
2022-10-19T12:37:02.963Z,21.99
2022-10-19T12:40:05.405Z,22.13
2022-10-19T12:42:38.976Z,22.19
2022-10-19T12:45:18.438Z,22.20
2022-10-19T12:48:13.166Z,22.46
2022-10-19T12:50:50.080Z,22.44
2022-10-19T12:53:27.907Z,22.42
2022-10-19T12:56:03.923Z,22.45
2022-10-19T12:58:36.797Z,22.45
2022-10-19T13:01:06.549Z,22.48
2022-10-19T13:03:37.261Z,22.36
2022-10-19T13:06:18.571Z,22.27
2022-10-19T13:08:54.448Z,22.29
2022-10-19T13:11:22.242Z,22.38
2022-10-19T13:14:07.308Z,22.60
2022-10-19T13:16:34.174Z,22.74
2022-10-19T13:19:13.164Z,22.69
2022-10-19T13:21:47.955Z,22.59
2022-10-19T13:24:29.341Z,22.65
2022-10-19T13:27:02.338Z,22.62
2022-10-19T13:29:44.863Z,22.49
2022-10-19T13:32:37.828Z,22.36
2022-10-19T13:35:25.767Z,22.37
2022-10-19T13:38:14.337Z,22.37
2022-10-19T13:40:50.181Z,22.40
2022-10-19T13:43:22.617Z,22.56
2022-10-19T13:46:13.543Z,22.75
2022-10-19T13:48:49.610Z,23.05
2022-10-19T13:52:00.598Z,23.17
2022-10-19T13:54:45.593Z,23.35
2022-10-19T13:57:15.123Z,23.24
2022-10-19T14:00:30.259Z,23.12
2022-10-19T14:03:15.456Z,23.28
2022-10-19T14:05:57.349Z,23.37
2022-10-19T14:08:55.019Z,23.32
2022-10-19T14:11:33.914Z,23.44
2022-10-19T14:14:07.950Z,23.62
2022-10-19T14:16:35.448Z,23.56
2022-10-19T14:19:02.261Z,23.65
2022-10-19T14:21:37.038Z,23.74
2022-10-19T14:24:20.040Z,23.77
2022-10-19T14:26:47.522Z,23.48
2022-10-19T14:29:14.769Z,23.35
2022-10-19T14:31:42.070Z,23.34
2022-10-19T14:34:09.674Z,23.09
2022-10-19T14:36:39.523Z,22.84
2022-10-19T14:41:36.329Z,22.58
2022-10-19T14:44:35.152Z,22.46
2022-10-19T14:47:02.686Z,22.21
2022-10-19T14:49:29.581Z,21.98
2022-10-19T14:52:01.511Z,21.36
2022-10-19T14:54:41.144Z,20.94
2022-10-19T14:57:19.771Z,20.61
2022-10-19T14:59:50.400Z,20.15
2022-10-19T15:02:31.265Z,19.82
2022-10-19T15:05:00.765Z,19.47
2022-10-19T15:07:41.918Z,19.14
2022-10-19T15:10:19.199Z,18.87
2022-10-19T15:12:46.330Z,18.63
2022-10-19T15:15:19.684Z,18.35
2022-10-19T15:18:30.192Z,18.12
2022-10-19T15:21:12.958Z,17.94
2022-10-19T15:23:46.799Z,17.76
2022-10-19T15:26:21.003Z,17.57
2022-10-19T15:28:49.248Z,17.41
2022-10-19T15:31:18.503Z,17.27
2022-10-19T15:33:49.736Z,17.15
2022-10-19T15:36:17.694Z,17.02
2022-10-19T15:39:18.474Z,16.90
2022-10-19T15:41:53.129Z,16.83
2022-10-19T15:44:42.986Z,16.69
2022-10-19T15:47:15.481Z,16.55
2022-10-19T15:49:42.259Z,16.44
2022-10-19T15:52:27.202Z,16.28
2022-10-19T15:54:56.059Z,16.16
2022-10-19T15:57:28.708Z,16.11
2022-10-19T15:59:57.309Z,16.04
2022-10-19T16:02:25.412Z,15.97
2022-10-19T16:04:53.827Z,15.81
2022-10-19T16:07:32.753Z,15.77
2022-10-19T16:10:00.020Z,15.72
2022-10-19T16:12:27.314Z,15.61
2022-10-19T16:14:54.969Z,15.57
2022-10-19T16:17:22.879Z,15.43
2022-10-19T16:19:49.785Z,15.41
2022-10-19T16:22:17.048Z,15.29
2022-10-19T16:24:44.006Z,15.29
2022-10-19T16:27:15.278Z,15.18
2022-10-19T16:29:44.391Z,15.16
2022-10-19T16:32:11.496Z,15.10
2022-10-19T16:34:38.646Z,15.03
2022-10-19T16:37:07.108Z,14.95
2022-10-19T16:39:35.091Z,14.88
2022-10-19T16:42:02.344Z,14.85
2022-10-19T16:44:29.578Z,14.88
2022-10-19T16:46:57.997Z,14.86
2022-10-19T16:49:25.686Z,14.78
2022-10-19T16:51:56.296Z,14.75
2022-10-19T16:54:26.859Z,14.69
2022-10-19T16:56:53.668Z,14.64
2022-10-19T16:59:20.571Z,14.57
2022-10-19T17:01:48.433Z,14.50
2022-10-19T17:04:18.098Z,14.37
2022-10-19T17:06:45.112Z,14.38
2022-10-19T17:11:59.111Z,14.28
2022-10-19T17:14:27.523Z,14.20
2022-10-19T17:16:54.367Z,14.23
2022-10-19T17:19:21.392Z,14.18
2022-10-19T17:21:49.459Z,14.17
2022-10-19T17:24:21.612Z,14.12
2022-10-19T17:26:51.003Z,14.15
2022-10-19T17:29:19.135Z,14.12
2022-10-19T17:31:46.329Z,14.07
2022-10-19T17:34:13.347Z,14.03
2022-10-19T17:36:44.905Z,14.03
2022-10-19T17:39:17.701Z,14.03
2022-10-19T17:41:46.432Z,14.02
2022-10-19T17:44:13.985Z,14.01
2022-10-19T17:46:42.108Z,13.98
2022-10-19T17:49:10.389Z,13.85
2022-10-19T17:51:37.911Z,13.85
2022-10-19T17:54:12.397Z,13.86
2022-10-19T17:56:40.373Z,13.76
2022-10-19T17:59:09.224Z,13.76
2022-10-19T18:01:37.131Z,13.74
2022-10-19T18:04:04.918Z,13.72
2022-10-19T18:06:34.777Z,13.69
2022-10-19T18:09:04.601Z,13.70
2022-10-19T18:11:38.705Z,13.68
2022-10-19T18:14:08.391Z,13.59
2022-10-19T18:16:38.543Z,13.49
2022-10-19T18:19:07.102Z,13.46
2022-10-19T18:21:40.649Z,13.45
2022-10-19T18:24:14.289Z,13.40
2022-10-19T18:26:43.207Z,13.35
2022-10-19T18:29:21.793Z,13.37
2022-10-19T18:31:51.818Z,13.41
2022-10-19T18:34:24.661Z,13.34
2022-10-19T18:36:53.817Z,13.42
2022-10-19T18:39:21.440Z,13.33
2022-10-19T18:41:54.627Z,13.24
2022-10-19T18:44:26.340Z,13.27
2022-10-19T18:46:54.449Z,13.29
2022-10-19T18:49:21.497Z,13.24
2022-10-19T18:51:54.111Z,13.22
2022-10-19T18:54:22.743Z,13.16
2022-10-19T18:56:49.552Z,13.16
2022-10-19T18:59:16.601Z,13.08
2022-10-19T19:01:43.699Z,13.04
2022-10-19T19:04:10.968Z,13.04
2022-10-19T19:06:39.485Z,13.04
2022-10-19T19:09:13.769Z,12.99
2022-10-19T19:11:41.494Z,12.96
2022-10-19T19:14:16.281Z,12.92
2022-10-19T19:16:44.789Z,12.91
2022-10-19T19:19:14.124Z,12.98
2022-10-19T19:21:44.974Z,12.97
2022-10-19T19:24:21.966Z,12.98
2022-10-19T19:26:55.076Z,12.93
2022-10-19T19:29:22.819Z,12.92
2022-10-19T19:31:50.750Z,12.91
2022-10-19T19:34:18.158Z,12.86
2022-10-19T19:36:47.748Z,12.83
2022-10-19T19:39:17.318Z,12.87
2022-10-19T19:41:44.200Z,12.85
2022-10-19T19:44:11.462Z,12.87
2022-10-19T19:46:39.066Z,12.86
2022-10-19T19:49:06.075Z,12.81
2022-10-19T19:51:33.605Z,12.84
2022-10-19T19:54:00.569Z,12.79
2022-10-19T19:56:29.047Z,12.84
2022-10-19T19:58:58.060Z,12.87
2022-10-19T20:01:25.424Z,12.86
2022-10-19T20:03:52.573Z,12.88
2022-10-19T20:06:23.556Z,12.87
2022-10-19T20:08:53.083Z,12.90
2022-10-19T20:11:20.093Z,12.94
2022-10-19T20:13:47.063Z,12.93
2022-10-19T20:16:19.820Z,13.01
2022-10-19T20:18:52.619Z,12.99
2022-10-19T20:21:23.536Z,12.91
2022-10-19T20:23:52.202Z,12.88
2022-10-19T20:26:23.379Z,12.92
2022-10-19T20:28:50.450Z,12.91
2022-10-19T20:31:17.920Z,12.95
2022-10-19T20:33:45.392Z,12.93
2022-10-19T20:36:17.236Z,12.98
2022-10-19T20:39:05.685Z,12.99
2022-10-19T20:41:32.583Z,13.00
2022-10-19T20:43:59.906Z,13.04
2022-10-19T20:46:30.674Z,13.07
2022-10-19T20:49:00.836Z,13.01
2022-10-19T20:51:32.024Z,13.04
2022-10-19T20:54:01.561Z,13.00
2022-10-19T20:56:31.130Z,12.95
2022-10-19T20:59:00.637Z,12.94
2022-10-19T21:01:29.983Z,12.94
2022-10-19T21:04:00.628Z,12.94
2022-10-19T21:06:29.864Z,12.91
2022-10-19T21:08:56.954Z,12.89
2022-10-19T21:11:26.679Z,12.91
2022-10-19T21:13:56.118Z,12.92
2022-10-19T21:16:24.647Z,12.96
2022-10-19T21:18:51.457Z,12.97
2022-10-19T21:21:29.851Z,13.04
2022-10-19T21:24:00.003Z,13.17
2022-10-19T21:26:31.017Z,13.18
2022-10-19T21:28:58.468Z,13.18
2022-10-19T21:31:26.773Z,13.17
2022-10-19T21:33:54.408Z,13.18
2022-10-19T21:36:25.376Z,13.14
2022-10-19T21:38:52.297Z,13.11
2022-10-19T21:41:25.337Z,13.09
2022-10-19T21:43:53.733Z,13.02
2022-10-19T21:46:21.935Z,13.04
2022-10-19T21:48:49.441Z,13.00
2022-10-19T21:51:25.092Z,13.02
2022-10-19T21:53:51.978Z,13.01
2022-10-19T21:56:18.867Z,12.93
2022-10-19T21:58:47.046Z,12.97
2022-10-19T22:01:14.691Z,12.97
2022-10-19T22:03:41.639Z,12.97
2022-10-19T22:06:08.586Z,13.01
2022-10-19T22:08:35.539Z,12.98
2022-10-19T22:11:10.971Z,12.99
2022-10-19T22:13:37.855Z,13.00
2022-10-19T22:16:19.254Z,13.00
2022-10-19T22:18:46.627Z,12.99
2022-10-19T22:21:25.171Z,13.01
2022-10-19T22:23:57.922Z,13.00
2022-10-19T22:26:28.106Z,12.90
2022-10-19T22:28:57.060Z,12.96
2022-10-19T22:31:25.706Z,13.00
2022-10-19T22:33:52.514Z,13.00
2022-10-19T22:36:19.459Z,13.02
2022-10-19T22:38:46.298Z,13.02
2022-10-19T22:41:13.122Z,13.03
2022-10-19T22:43:39.962Z,13.08
2022-10-19T22:46:06.874Z,13.09
2022-10-19T22:48:34.039Z,13.03
2022-10-19T22:51:00.941Z,13.06
2022-10-19T22:53:27.814Z,13.05
2022-10-19T22:55:54.623Z,13.06
2022-10-19T22:58:21.421Z,13.05
2022-10-19T23:00:59.896Z,13.04
2022-10-19T23:03:26.744Z,13.03
2022-10-19T23:05:53.498Z,13.05
2022-10-19T23:08:20.366Z,13.03
2022-10-19T23:10:47.176Z,13.01
2022-10-19T23:13:14.074Z,12.94
2022-10-19T23:15:43.973Z,12.93
2022-10-19T23:18:12.032Z,12.92
2022-10-19T23:20:39.075Z,12.97
2022-10-19T23:23:06.263Z,12.94
2022-10-19T23:28:19.862Z,12.98
2022-10-19T23:30:46.694Z,13.02
2022-10-19T23:33:13.479Z,13.03
2022-10-19T23:35:40.260Z,13.06
2022-10-19T23:38:07.023Z,13.05
2022-10-19T23:40:33.822Z,13.07
2022-10-19T23:43:00.680Z,13.07
2022-10-19T23:45:27.447Z,12.99
2022-10-19T23:47:54.253Z,13.02
2022-10-19T23:50:21.023Z,13.01
2022-10-19T23:55:14.606Z,12.93
2022-10-19T23:57:41.358Z,12.93
